createdAt,value
2023-07-26T00:00:37.132Z,9.98
2023-07-26T00:03:04.343Z,10.75
2023-07-26T00:05:32.364Z,10.85
2023-07-26T00:07:59.569Z,9.73
2023-07-26T00:10:26.814Z,10.80
2023-07-26T00:12:54.080Z,9.18
2023-07-26T00:15:21.169Z,9.65
2023-07-26T00:17:48.587Z,11.48
2023-07-26T00:20:15.630Z,11.45
2023-07-26T00:22:42.748Z,11.82
2023-07-26T00:25:10.048Z,12.35
2023-07-26T00:27:37.196Z,11.88
2023-07-26T00:30:07.039Z,11.50
2023-07-26T00:32:34.833Z,13.02
2023-07-26T00:35:04.390Z,12.57
2023-07-26T00:37:32.213Z,12.43
2023-07-26T00:39:59.553Z,21.02
2023-07-26T00:42:26.979Z,13.15
2023-07-26T00:44:54.257Z,13.15
2023-07-26T00:47:21.670Z,12.77
2023-07-26T00:49:51.009Z,13.02
2023-07-26T00:52:18.870Z,13.73
2023-07-26T00:54:46.121Z,14.40
2023-07-26T00:57:14.078Z,15.98
2023-07-26T00:59:41.274Z,15.20
2023-07-26T01:02:08.501Z,14.68
2023-07-26T01:04:35.590Z,12.95
2023-07-26T01:07:13.109Z,15.45
2023-07-26T01:10:17.781Z,13.30
2023-07-26T01:12:55.401Z,14.43
2023-07-26T01:15:30.320Z,13.43
2023-07-26T01:18:17.625Z,13.88
2023-07-26T01:20:45.792Z,14.20
2023-07-26T01:23:12.946Z,14.27
2023-07-26T01:25:40.385Z,14.23
2023-07-26T01:28:07.520Z,14.15
2023-07-26T01:30:35.726Z,15.52
2023-07-26T01:33:06.598Z,14.32
2023-07-26T01:35:36.692Z,14.75
2023-07-26T01:38:05.036Z,14.15
2023-07-26T01:40:33.909Z,14.73
2023-07-26T01:43:02.056Z,14.20
2023-07-26T01:45:29.440Z,15.48
2023-07-26T01:47:56.691Z,15.20
2023-07-26T01:50:24.402Z,14.15
2023-07-26T01:52:52.236Z,14.55
2023-07-26T01:55:19.408Z,13.13
2023-07-26T01:57:47.797Z,14.15
2023-07-26T02:00:15.141Z,15.95
2023-07-26T02:02:42.331Z,19.23
2023-07-26T02:05:11.177Z,15.30
2023-07-26T02:07:39.032Z,13.98
2023-07-26T02:10:06.405Z,14.30
2023-07-26T02:12:33.666Z,15.07
2023-07-26T02:15:01.081Z,14.80
2023-07-26T02:17:33.216Z,15.25
2023-07-26T02:20:20.368Z,14.52
2023-07-26T02:22:47.387Z,13.73
2023-07-26T02:25:14.560Z,14.90
2023-07-26T02:27:41.933Z,15.27
2023-07-26T02:30:09.656Z,15.23
2023-07-26T02:32:36.910Z,16.02
2023-07-26T02:35:04.246Z,15.38
2023-07-26T02:37:31.567Z,15.68
2023-07-26T02:39:58.624Z,15.50
2023-07-26T02:42:28.493Z,14.68
2023-07-26T02:44:55.889Z,15.27
2023-07-26T02:47:23.016Z,21.52
2023-07-26T02:49:50.185Z,14.68
2023-07-26T02:52:17.252Z,15.57
2023-07-26T02:54:44.437Z,15.65
2023-07-26T02:57:11.628Z,15.93
2023-07-26T02:59:38.707Z,15.88
2023-07-26T03:02:06.014Z,15.40
2023-07-26T03:04:33.274Z,15.38
2023-07-26T03:07:01.228Z,16.02
2023-07-26T03:09:28.290Z,14.77
2023-07-26T03:11:55.517Z,15.45
2023-07-26T03:14:22.677Z,15.80
2023-07-26T03:16:49.795Z,14.70
2023-07-26T03:19:16.957Z,15.27
2023-07-26T03:21:43.984Z,14.60
2023-07-26T03:24:11.160Z,16.33
2023-07-26T03:26:38.340Z,14.70
2023-07-26T03:29:05.461Z,14.75
2023-07-26T03:31:32.539Z,14.50
2023-07-26T03:33:59.741Z,13.90
2023-07-26T03:36:27.625Z,13.50
2023-07-26T03:38:54.671Z,13.88
2023-07-26T03:41:21.718Z,17.13
2023-07-26T03:43:48.938Z,13.02
2023-07-26T03:46:16.136Z,12.60
2023-07-26T03:48:43.254Z,14.77
2023-07-26T03:51:10.371Z,15.32
2023-07-26T03:53:37.748Z,14.10
2023-07-26T03:56:05.058Z,13.75
2023-07-26T03:58:33.483Z,12.82
2023-07-26T04:01:00.565Z,16.92
2023-07-26T04:03:27.802Z,12.57
2023-07-26T04:05:55.119Z,12.20
2023-07-26T04:08:22.324Z,11.95
2023-07-26T04:10:49.520Z,11.15
2023-07-26T04:13:17.053Z,10.65
2023-07-26T04:15:44.259Z,10.98
2023-07-26T04:18:11.774Z,11.85
2023-07-26T04:20:38.824Z,16.15
2023-07-26T04:23:06.111Z,11.35
2023-07-26T04:25:33.224Z,11.57
2023-07-26T04:28:00.312Z,11.07
2023-07-26T04:30:27.480Z,10.23
2023-07-26T04:32:54.717Z,9.80
2023-07-26T04:35:21.825Z,10.02
2023-07-26T04:37:48.980Z,9.90
2023-07-26T04:40:16.153Z,13.38
2023-07-26T04:42:43.239Z,9.18
2023-07-26T04:45:10.733Z,9.05
2023-07-26T04:47:37.965Z,8.63
2023-07-26T04:50:05.574Z,19.05
2023-07-26T04:52:34.710Z,10.52
2023-07-26T04:55:01.856Z,9.87
2023-07-26T04:57:31.021Z,15.67
2023-07-26T04:59:58.146Z,8.38
2023-07-26T05:02:25.331Z,8.02
2023-07-26T05:04:52.472Z,8.05
2023-07-26T05:07:19.574Z,8.00
2023-07-26T05:09:46.839Z,8.82
2023-07-26T05:12:14.049Z,8.80
2023-07-26T05:14:42.652Z,8.40
2023-07-26T05:17:09.849Z,8.65
2023-07-26T05:19:37.053Z,7.72
2023-07-26T05:22:04.272Z,7.82
2023-07-26T05:24:31.418Z,8.52
2023-07-26T05:26:59.511Z,8.38
2023-07-26T05:29:26.986Z,7.53
2023-07-26T05:31:54.136Z,8.18
2023-07-26T05:34:21.286Z,8.00
2023-07-26T05:36:48.397Z,8.70
2023-07-26T05:39:15.490Z,7.78
2023-07-26T05:41:42.680Z,8.07
2023-07-26T05:44:09.790Z,8.10
2023-07-26T05:46:36.843Z,8.32
2023-07-26T05:49:03.922Z,8.05
2023-07-26T05:51:31.338Z,8.23
2023-07-26T05:53:58.732Z,8.30
2023-07-26T05:56:25.835Z,8.20
2023-07-26T05:58:53.081Z,7.97
2023-07-26T06:01:20.356Z,8.50
2023-07-26T06:03:47.542Z,8.23
2023-07-26T06:06:14.917Z,8.13
2023-07-26T06:08:42.209Z,8.13
2023-07-26T06:11:09.334Z,8.20
2023-07-26T06:13:36.587Z,7.72
2023-07-26T06:16:03.984Z,7.93
2023-07-26T06:18:31.160Z,7.00
2023-07-26T06:20:58.349Z,7.82
2023-07-26T06:23:25.359Z,7.90
2023-07-26T06:25:52.569Z,8.25
2023-07-26T06:28:19.653Z,8.00
2023-07-26T06:30:46.757Z,7.88
2023-07-26T06:33:13.923Z,7.70
2023-07-26T06:35:41.106Z,7.60
2023-07-26T06:38:10.316Z,7.15
2023-07-26T06:40:37.463Z,7.60
2023-07-26T06:43:04.636Z,7.68
2023-07-26T06:45:31.829Z,7.88
2023-07-26T06:47:59.162Z,7.57
2023-07-26T06:50:26.319Z,7.32
2023-07-26T06:52:53.418Z,7.40
2023-07-26T06:55:20.513Z,7.68
2023-07-26T06:57:47.698Z,7.28
2023-07-26T07:00:17.115Z,7.53
2023-07-26T07:02:44.343Z,8.13
2023-07-26T07:05:12.828Z,7.35
2023-07-26T07:07:39.943Z,7.93
2023-07-26T07:10:07.620Z,7.15
2023-07-26T07:12:34.778Z,7.88
2023-07-26T07:15:01.926Z,7.90
2023-07-26T07:17:33.428Z,8.00
2023-07-26T07:20:00.721Z,7.45
2023-07-26T07:22:28.611Z,7.35
2023-07-26T07:24:55.851Z,7.65
2023-07-26T07:27:23.066Z,7.50
2023-07-26T07:29:50.676Z,7.75
2023-07-26T07:32:22.227Z,7.25
2023-07-26T07:34:50.723Z,10.95
2023-07-26T07:37:18.002Z,7.45
2023-07-26T07:39:45.148Z,7.80
2023-07-26T07:42:12.318Z,7.45
2023-07-26T07:44:39.663Z,8.07
2023-07-26T07:47:09.598Z,7.47
2023-07-26T07:49:38.956Z,8.10
2023-07-26T07:52:06.621Z,8.63
2023-07-26T07:54:33.744Z,7.72
2023-07-26T07:57:01.111Z,8.52
2023-07-26T07:59:28.279Z,7.65
2023-07-26T08:01:55.335Z,8.60
2023-07-26T08:04:22.541Z,8.43
2023-07-26T08:06:50.216Z,8.48
2023-07-26T08:09:17.455Z,8.32
2023-07-26T08:11:44.572Z,8.13
2023-07-26T08:14:11.653Z,7.82
2023-07-26T08:16:38.905Z,7.88
2023-07-26T08:19:06.091Z,8.38
2023-07-26T08:21:33.507Z,7.93
2023-07-26T08:24:00.706Z,7.93
2023-07-26T08:26:28.038Z,8.00
2023-07-26T08:28:55.132Z,7.95
2023-07-26T08:31:22.322Z,7.50
2023-07-26T08:33:49.489Z,7.70
2023-07-26T08:36:16.600Z,8.18
2023-07-26T08:38:43.711Z,8.18
2023-07-26T08:41:11.358Z,8.02
2023-07-26T08:43:39.272Z,8.55
2023-07-26T08:46:08.664Z,8.57
2023-07-26T08:48:38.114Z,8.27
2023-07-26T08:51:06.711Z,8.20
2023-07-26T08:53:35.019Z,7.85
2023-07-26T08:56:02.437Z,8.52
2023-07-26T08:58:30.039Z,8.25
2023-07-26T09:00:58.929Z,9.20
2023-07-26T09:03:26.328Z,8.13
2023-07-26T09:06:07.918Z,8.23
2023-07-26T09:08:35.547Z,8.35
2023-07-26T09:11:19.245Z,8.35
2023-07-26T09:13:53.067Z,8.63
2023-07-26T09:16:20.974Z,9.00
2023-07-26T09:19:05.762Z,8.45
2023-07-26T09:21:37.529Z,7.47
2023-07-26T09:24:05.562Z,8.85
2023-07-26T09:26:41.133Z,8.88
2023-07-26T09:29:10.115Z,8.77
2023-07-26T09:31:38.324Z,8.35
2023-07-26T09:34:08.248Z,8.63
2023-07-26T09:39:20.670Z,8.90
2023-07-26T09:41:48.319Z,8.52
2023-07-26T09:44:20.455Z,8.55
2023-07-26T09:46:56.641Z,8.65
2023-07-26T09:49:28.827Z,8.68
2023-07-26T09:54:34.214Z,8.77
2023-07-26T09:57:02.527Z,8.88
2023-07-26T09:59:31.678Z,9.00
2023-07-26T10:02:03.889Z,9.15
2023-07-26T10:04:51.588Z,9.35
2023-07-26T10:07:20.026Z,9.15
2023-07-26T10:09:49.221Z,9.40
2023-07-26T10:12:16.731Z,9.02
2023-07-26T10:14:44.074Z,9.70
2023-07-26T10:17:14.402Z,9.75
2023-07-26T10:19:42.961Z,9.23
2023-07-26T10:22:12.323Z,8.82
2023-07-26T10:24:43.632Z,9.35
2023-07-26T10:27:11.483Z,9.13
2023-07-26T10:29:38.804Z,9.05
2023-07-26T10:32:08.262Z,9.10
2023-07-26T10:34:35.927Z,9.50
2023-07-26T10:37:20.385Z,9.85
2023-07-26T10:39:50.484Z,10.05
2023-07-26T10:45:03.687Z,9.70
2023-07-26T10:47:34.048Z,9.65
2023-07-26T10:50:10.752Z,9.73
2023-07-26T10:52:38.907Z,8.93
2023-07-26T10:55:28.404Z,9.75
2023-07-26T10:57:59.166Z,9.98
2023-07-26T11:00:36.355Z,9.63
2023-07-26T11:03:04.423Z,10.38
2023-07-26T11:05:32.046Z,7.75
2023-07-26T11:08:01.939Z,10.05
2023-07-26T11:10:32.959Z,9.90
2023-07-26T11:13:17.217Z,11.73
2023-07-26T11:16:12.037Z,11.52
2023-07-26T11:18:41.554Z,11.50
2023-07-26T11:21:15.572Z,10.98
2023-07-26T11:23:42.796Z,11.80
2023-07-26T11:26:09.977Z,12.60
2023-07-26T11:28:37.203Z,12.38
2023-07-26T11:31:04.450Z,12.13
2023-07-26T11:33:32.899Z,11.40
2023-07-26T11:36:02.296Z,12.38
2023-07-26T11:38:29.958Z,10.65
2023-07-26T11:40:57.630Z,11.95
2023-07-26T11:43:27.393Z,13.80
2023-07-26T11:45:56.720Z,15.05
2023-07-26T11:48:25.984Z,12.70
2023-07-26T11:50:56.893Z,13.63
2023-07-26T11:53:43.112Z,12.50
2023-07-26T11:56:12.485Z,12.25
2023-07-26T11:58:39.848Z,14.43
2023-07-26T12:01:07.559Z,9.88
2023-07-26T12:03:36.968Z,13.63
2023-07-26T12:06:08.880Z,11.77
2023-07-26T12:08:39.117Z,11.55
2023-07-26T12:11:08.146Z,11.48
2023-07-26T12:13:37.398Z,12.63
2023-07-26T12:16:05.632Z,10.73
2023-07-26T12:18:33.413Z,12.73
2023-07-26T12:21:13.105Z,13.95
2023-07-26T12:23:53.348Z,10.57
2023-07-26T12:26:23.309Z,11.75
2023-07-26T12:28:55.539Z,9.35
2023-07-26T12:31:26.481Z,11.63
2023-07-26T12:34:07.911Z,11.18
2023-07-26T12:36:43.847Z,10.75
2023-07-26T12:39:13.146Z,9.85
2023-07-26T12:41:44.235Z,10.43
2023-07-26T12:44:15.411Z,11.95
2023-07-26T12:49:14.323Z,12.52
2023-07-26T12:51:41.626Z,12.38
2023-07-26T12:54:09.606Z,11.25
2023-07-26T12:56:37.287Z,12.90
2023-07-26T12:59:08.674Z,11.13
2023-07-26T13:01:40.264Z,12.75
2023-07-26T13:04:09.271Z,11.02
2023-07-26T13:06:38.012Z,10.48
2023-07-26T13:09:06.454Z,13.13
2023-07-26T13:11:33.975Z,10.85
2023-07-26T13:14:01.522Z,12.23
2023-07-26T13:16:31.804Z,10.60
2023-07-26T13:19:04.185Z,11.55
2023-07-26T13:21:32.552Z,12.30
2023-07-26T13:24:00.387Z,8.93
2023-07-26T13:26:28.613Z,11.57
2023-07-26T13:28:55.983Z,10.93
2023-07-26T13:31:23.246Z,10.25
2023-07-26T13:33:52.077Z,9.13
2023-07-26T13:36:22.441Z,9.20
2023-07-26T13:38:49.654Z,13.90
2023-07-26T13:41:16.956Z,9.65
2023-07-26T13:43:44.126Z,11.23
2023-07-26T13:46:38.273Z,11.65
2023-07-26T13:48:58.364Z,10.02
2023-07-26T13:51:25.665Z,9.20
2023-07-26T13:53:52.913Z,9.77
2023-07-26T13:56:20.146Z,11.68
2023-07-26T13:58:48.975Z,9.35
2023-07-26T14:01:17.798Z,12.20
2023-07-26T14:03:45.330Z,11.45
2023-07-26T14:06:12.584Z,11.02
2023-07-26T14:08:39.756Z,9.18
2023-07-26T14:11:07.175Z,9.90
2023-07-26T14:13:34.467Z,11.77
2023-07-26T14:18:32.452Z,11.63
2023-07-26T14:21:00.159Z,10.88
2023-07-26T14:23:31.428Z,10.60
2023-07-26T14:25:58.844Z,12.38
2023-07-26T14:28:26.239Z,12.13
2023-07-26T14:30:53.488Z,12.50
2023-07-26T14:33:20.939Z,12.55
2023-07-26T14:35:49.020Z,11.27
2023-07-26T14:38:16.401Z,12.32
2023-07-26T14:40:43.540Z,9.30
2023-07-26T14:43:10.726Z,9.02
2023-07-26T14:45:37.978Z,9.45
2023-07-26T14:48:05.463Z,11.23
2023-07-26T14:50:32.837Z,10.68
2023-07-26T14:53:00.380Z,11.32
2023-07-26T14:55:29.823Z,11.25
2023-07-26T14:57:58.158Z,11.35
2023-07-26T15:00:25.760Z,10.18
2023-07-26T15:02:53.178Z,11.30
2023-07-26T15:05:20.378Z,10.93
2023-07-26T15:07:47.862Z,11.77
2023-07-26T15:10:16.378Z,11.10
2023-07-26T15:12:46.583Z,8.65
2023-07-26T15:15:14.446Z,10.43
2023-07-26T15:17:41.624Z,10.77
2023-07-26T15:20:09.940Z,9.27
2023-07-26T15:22:37.213Z,10.10
2023-07-26T15:25:05.033Z,11.25
2023-07-26T15:27:32.875Z,10.27
2023-07-26T15:30:01.248Z,11.05
2023-07-26T15:32:30.239Z,14.43
2023-07-26T15:34:58.034Z,11.43
2023-07-26T15:37:25.102Z,10.63
2023-07-26T15:39:52.375Z,11.63
2023-07-26T15:47:19.882Z,12.27
2023-07-26T15:49:55.885Z,12.63
2023-07-26T15:52:23.720Z,12.60
2023-07-26T15:54:50.807Z,13.40
2023-07-26T15:57:18.028Z,12.90
2023-07-26T15:59:45.102Z,14.02
2023-07-26T16:02:13.554Z,14.85
2023-07-26T16:09:38.332Z,15.65
2023-07-26T16:22:08.784Z,10.90
2023-07-26T16:24:36.136Z,10.88
2023-07-26T16:27:03.257Z,7.82
2023-07-26T16:29:31.597Z,8.20
2023-07-26T16:31:58.952Z,7.40
2023-07-26T16:34:26.304Z,7.03
2023-07-26T16:36:53.412Z,8.65
2023-07-26T16:39:20.567Z,7.05
2023-07-26T16:41:47.803Z,9.00
2023-07-26T16:44:14.829Z,9.18
2023-07-26T16:47:05.260Z,7.38
2023-07-26T16:49:29.325Z,8.63
2023-07-26T16:51:56.483Z,6.93
2023-07-26T16:54:23.943Z,6.03
2023-07-26T16:56:51.060Z,7.95
2023-07-26T16:59:18.309Z,8.50
2023-07-26T17:01:45.679Z,8.95
2023-07-26T17:04:13.954Z,7.43
2023-07-26T17:06:43.098Z,7.38
2023-07-26T17:09:10.372Z,6.27
2023-07-26T17:11:37.464Z,6.45
2023-07-26T17:14:04.675Z,6.47
2023-07-26T17:16:32.453Z,6.18
2023-07-26T17:18:59.984Z,4.15
2023-07-26T17:21:27.000Z,4.97
2023-07-26T17:23:53.987Z,4.80
2023-07-26T17:26:21.090Z,4.20
2023-07-26T17:28:48.982Z,3.97
2023-07-26T17:31:16.122Z,4.90
2023-07-26T17:33:43.321Z,5.63
2023-07-26T17:36:12.387Z,6.10
2023-07-26T17:38:39.726Z,7.27
2023-07-26T17:41:07.364Z,8.80
2023-07-26T17:43:35.682Z,6.47
2023-07-26T17:46:03.667Z,6.28
2023-07-26T17:48:35.875Z,6.03
2023-07-26T17:51:02.937Z,6.32
2023-07-26T17:53:30.969Z,6.60
2023-07-26T17:55:58.045Z,6.57
2023-07-26T17:58:25.079Z,7.38
2023-07-26T18:00:52.168Z,7.15
2023-07-26T18:03:19.278Z,7.07
2023-07-26T18:05:49.022Z,6.90
2023-07-26T18:08:19.016Z,8.07
2023-07-26T18:10:46.153Z,7.63
2023-07-26T18:13:13.227Z,7.55
2023-07-26T18:16:03.081Z,8.27
2023-07-26T18:18:30.554Z,6.97
2023-07-26T18:21:04.805Z,7.75
2023-07-26T18:23:36.052Z,7.70
2023-07-26T18:26:03.565Z,8.23
2023-07-26T18:28:30.710Z,7.10
2023-07-26T18:31:08.511Z,8.05
2023-07-26T18:33:37.533Z,7.95
2023-07-26T18:36:04.830Z,8.20
2023-07-26T18:38:32.029Z,7.97
2023-07-26T18:41:00.085Z,8.60
2023-07-26T18:43:27.390Z,9.90
2023-07-26T18:45:54.453Z,8.52
2023-07-26T18:48:23.320Z,7.45
2023-07-26T18:50:51.788Z,8.07
2023-07-26T18:53:19.174Z,7.10
2023-07-26T18:55:49.812Z,7.80
2023-07-26T18:58:17.451Z,6.72
2023-07-26T19:00:46.002Z,6.75
2023-07-26T19:03:13.516Z,7.53
2023-07-26T19:05:41.371Z,7.82
2023-07-26T19:08:09.336Z,9.55
2023-07-26T19:10:40.823Z,11.60
2023-07-26T19:13:09.498Z,12.57
2023-07-26T19:15:36.922Z,10.80
2023-07-26T19:18:04.272Z,16.27
2023-07-26T19:20:31.509Z,6.45
2023-07-26T19:23:02.032Z,6.05
2023-07-26T19:25:30.334Z,6.65
2023-07-26T19:27:57.420Z,6.13
2023-07-26T19:30:26.779Z,7.35
2023-07-26T19:32:54.077Z,7.68
2023-07-26T19:35:21.415Z,8.40
2023-07-26T19:37:48.504Z,8.18
2023-07-26T19:40:15.617Z,13.52
2023-07-26T19:42:42.707Z,8.60
2023-07-26T19:45:10.341Z,7.95
2023-07-26T19:47:37.359Z,6.13
2023-07-26T19:50:05.045Z,7.28
2023-07-26T19:52:32.199Z,7.38
2023-07-26T19:54:59.499Z,8.93
2023-07-26T19:57:26.735Z,8.35
2023-07-26T19:59:53.835Z,7.03
2023-07-26T20:02:21.002Z,6.68
2023-07-26T20:04:48.195Z,7.20
2023-07-26T20:07:16.290Z,7.07
2023-07-26T20:09:43.373Z,8.25
2023-07-26T20:12:10.709Z,7.07
2023-07-26T20:14:37.943Z,8.38
2023-07-26T20:17:05.422Z,7.15
2023-07-26T20:19:32.452Z,6.82
2023-07-26T20:21:59.437Z,7.97
2023-07-26T20:24:26.560Z,6.95
2023-07-26T20:26:53.629Z,6.80
2023-07-26T20:29:21.416Z,6.55
2023-07-26T20:31:48.666Z,6.57
2023-07-26T20:34:15.758Z,6.55
2023-07-26T20:36:43.015Z,6.30
2023-07-26T20:39:10.100Z,6.20
2023-07-26T20:41:37.186Z,5.93
2023-07-26T20:44:04.292Z,5.90
2023-07-26T20:46:31.558Z,6.35
2023-07-26T20:48:58.637Z,6.80
2023-07-26T20:51:25.704Z,6.50
2023-07-26T20:53:52.802Z,6.32
2023-07-26T20:56:19.863Z,6.38
2023-07-26T20:58:46.956Z,7.38
2023-07-26T21:01:14.108Z,7.30
2023-07-26T21:03:41.507Z,7.20
2023-07-26T21:06:08.688Z,6.63
2023-07-26T21:08:35.666Z,6.43
2023-07-26T21:11:02.878Z,8.05
2023-07-26T21:13:29.944Z,6.65
2023-07-26T21:15:59.458Z,6.85
2023-07-26T21:18:27.155Z,7.45
2023-07-26T21:20:54.532Z,8.27
2023-07-26T21:23:22.146Z,8.35
2023-07-26T21:25:50.538Z,6.97
2023-07-26T21:28:19.148Z,7.93
2023-07-26T21:30:48.848Z,6.85
2023-07-26T21:33:17.180Z,8.02
2023-07-26T21:35:44.731Z,7.03
2023-07-26T21:38:12.498Z,7.18
2023-07-26T21:40:39.531Z,7.13
2023-07-26T21:43:06.876Z,7.35
2023-07-26T21:45:34.017Z,6.78
2023-07-26T21:48:02.947Z,6.80
2023-07-26T21:50:30.684Z,6.53
2023-07-26T21:52:57.706Z,7.30
2023-07-26T21:55:25.182Z,7.78
2023-07-26T21:57:52.265Z,6.40
2023-07-26T22:00:19.502Z,6.43
2023-07-26T22:02:46.769Z,6.82
2023-07-26T22:05:13.851Z,6.80
2023-07-26T22:07:40.974Z,6.47
2023-07-26T22:10:08.493Z,6.43
2023-07-26T22:12:35.690Z,6.47
2023-07-26T22:15:02.976Z,6.78
2023-07-26T22:20:00.180Z,8.02
2023-07-26T22:22:27.520Z,7.20
2023-07-26T22:24:54.814Z,7.88
2023-07-26T22:27:21.886Z,8.30
2023-07-26T22:29:48.963Z,8.38
2023-07-26T22:32:16.292Z,8.02
2023-07-26T22:34:43.618Z,9.38
2023-07-26T22:37:10.770Z,9.00
2023-07-26T22:39:37.892Z,8.45
2023-07-26T22:42:05.422Z,8.93
2023-07-26T22:44:32.441Z,8.48
2023-07-26T22:46:59.535Z,8.57
2023-07-26T22:49:26.685Z,9.27
2023-07-26T22:51:54.001Z,8.90
2023-07-26T22:54:22.182Z,8.60
2023-07-26T22:56:49.370Z,8.60
2023-07-26T22:59:16.705Z,8.60
2023-07-26T23:01:43.774Z,8.65
2023-07-26T23:04:11.050Z,9.23
2023-07-26T23:06:38.154Z,8.70
2023-07-26T23:09:05.306Z,9.25
2023-07-26T23:11:32.696Z,7.75
2023-07-26T23:13:59.946Z,7.32
2023-07-26T23:16:27.096Z,8.50
2023-07-26T23:18:54.072Z,7.95
2023-07-26T23:21:21.129Z,7.75
2023-07-26T23:23:48.258Z,7.63
2023-07-26T23:26:15.314Z,8.20
2023-07-26T23:28:42.350Z,7.63
2023-07-26T23:31:10.632Z,8.00
2023-07-26T23:33:37.773Z,7.72
2023-07-26T23:36:05.031Z,8.43
2023-07-26T23:38:32.090Z,8.63
2023-07-26T23:41:01.138Z,7.90
2023-07-26T23:43:28.117Z,7.95
2023-07-26T23:45:55.161Z,8.38
2023-07-26T23:48:22.456Z,7.38
2023-07-26T23:50:49.531Z,7.68
2023-07-26T23:53:16.570Z,7.32
2023-07-26T23:55:44.810Z,7.55
2023-07-26T23:58:12.088Z,8.07
